Rachel, Nevada Weather observations

Data are for observation ending at time listed.
 Day   Time    Ave.   Ave.  Ave.  Vector   Max.   Stn.    Total    Solar   Ave.  
  of    of     Air    Rel.  Wind   Wind    Wind   Baro.  Precip.   Rad.    Soil  
Year   Day     Temp.  Hum.  Speed  Dir.    Gust   Pres.                    Temp. 
2016   (PST)    F      %     mph   deg.    mph     mb.     in.     W/m2     F   
------------------------------------------------------------------------------
 239    0:10   59.1    30    1.2   293      2.3   848.3    0.00       0    72.6
 239    0:20   58.3    30    1.1   169      3.1   848.1    0.00       0    72.4
 239    0:30   57.5    29    3.3   197      4.4   848.9    0.00       0    72.1
 239    0:40   58.7    29    3.2   252      4.9   848.3    0.00       0    72.0
 239    0:50   56.7    31    3.2   272      5.3   847.6    0.00       0    71.8
 239    1:00   56.9    32    2.5   294      4.2   848.2    0.00       0    71.6
 239    1:10   56.8    32    1.7     4      2.9   847.8    0.00       0    71.3
 239    1:20   56.1    32    3.9    60      4.7   848.1    0.00       0    70.9
 239    1:30   55.7    31    3.7    87      6.6   848.5    0.00       0    70.6
 239    1:40   55.2    31    4.6    74      6.6   848.0    0.00       0    70.3
 239    1:50   53.9    32    3.3    72      4.5   848.0    0.00       0    70.1
 239    2:00   54.4    31    3.3   132      5.1   846.4    0.00       0    70.0
 239    2:10   55.3    30    3.8   130      6.1   846.3    0.00       0    69.7
 239    2:20   56.0    29    5.5    92      7.2   845.9    0.00       0    69.5
 239    2:30   54.9    30    4.4    90      5.7   848.6    0.00       0    69.4
 239    2:40   55.2    30    2.9   107      5.5   849.4    0.00       0    69.3
 239    2:50   56.5    29    1.4    56      3.1   849.6    0.00       0    69.2
 239    3:00   55.4    31    1.6   256      3.7   849.5    0.00       0    69.2
 239    3:10   55.4    31    3.2   246      4.2   848.4    0.00       0    69.1
 239    3:20   55.1    30    2.8   261      4.7   849.5    0.00       0    69.0
 239    3:30   56.1    29    3.3   248      4.6   849.9    0.00       0    68.9
 239    3:40   55.5    29    2.6   213      4.0   850.1    0.00       0    68.7
 239    3:50   56.2    29    1.5   184      2.6   850.2    0.00       0    68.4
 239    4:00   55.0    31    2.4   111      4.7   850.2    0.00       0    68.1
 239    4:10   54.1    31    2.7    83      5.1   850.2    0.00       0    67.8
 239    4:20   51.9    32    0.6   119      2.1   849.9    0.00       0    67.7
 239    4:30   51.3    33    1.5   134      3.6   850.1    0.00       0    67.7
 239    4:40   51.9    34    1.6   149      3.9   850.1    0.00       0    67.6
 239    4:50   51.2    34    0.9    93      1.9   849.5    0.00       0    67.4
 239    5:00   51.7    34    1.2   134      3.1   850.0    0.00       0    67.2
 239    5:10   51.7    35    3.3   151      4.0   850.0    0.00       1    67.0
 239    5:20   51.4    36    3.7   140      5.5   849.5    0.00       3    66.9
 239    5:30   51.9    36    1.8   123      3.5   849.6    0.00       8    66.8
 239    5:40   52.5    35    1.5   166      3.5   850.8    0.00      21    66.8
 239    5:50   53.0    34    2.2   189      3.1   851.0    0.00      37    66.9
 239    6:00   52.4    36    3.1   229      5.4   851.1    0.00      57    66.9
 239    6:10   52.3    35    3.8   232      6.3   851.2    0.00      82    67.0
 239    6:20   54.0    34    2.3   226      4.8   851.3    0.00     107    67.3
 239    6:30   56.1    31    2.2   279      3.4   851.4    0.00     133    67.8
 239    6:40   57.5    30    1.7   314      3.2   851.7    0.00     159    68.0
 239    6:50   58.3    30    1.6   320      3.8   851.9    0.00     185    68.1
 239    7:00   58.8    30    2.4   321      4.0   852.1    0.00     211    68.4
 239    7:10   60.2    30    1.3   321      2.7   852.4    0.00     236    69.2
 239    7:20   61.6    29    1.1   288      2.2   852.6    0.00     261    70.2
 239    7:30   62.0    29    1.6   329      3.2   852.8    0.00     286    70.9
 239    7:40   62.6    28    1.8   320      3.7   852.9    0.00     310    71.5
 239    7:50   63.6    27    1.9   317      4.1   853.1    0.00     334    72.2
 239    8:00   63.9    26    2.6   316      4.7   853.4    0.00     359    72.9
 239    8:10   65.2    25    2.2   310      4.3   853.5    0.00     381    73.5
 239    8:20   66.9    24    2.0   317      3.9   853.6    0.00     402    74.2
 239    8:30   67.9    24    2.8   317      5.3   853.9    0.00     423    74.8
 239    8:40   69.9    23    2.5   341      5.0   853.9    0.00     444    75.4
 239    8:50   72.1    22    2.0   351      4.1   854.3    0.00     462    76.1
 239    9:00   73.2    22    2.4   334      5.8   854.4    0.00     481    76.8
 239    9:10   75.1    22    3.6   344      6.0   854.4    0.00     500    77.4
 239    9:20   76.7    21    4.2   339      7.4   854.1    0.00     519    78.0
 239    9:30   77.9    21    3.1   332      6.6   854.2    0.00     535    78.6
 239    9:40   79.8    21    6.2   149     16.0   854.6    0.00     549    78.8
 239    9:50   79.8    21   11.6   166     20.1   854.9    0.00     563    78.9
 239   10:00   81.4    17   11.4   210     23.8   854.9    0.00     577    78.9
 239   10:10   82.8    15   11.1   215     31.4   854.6    0.00     591    78.8
 239   10:20   82.7    14   15.7   212     23.6   854.7    0.00     602    78.9
 239   10:30   82.8    14   14.5   216     22.1   854.8    0.00     612    79.0
 239   10:40   83.1    14   12.9   225     22.1   854.8    0.00     622    79.2
 239   10:50   83.5    14   14.0   218     21.0   854.3    0.00     630    79.6
 239   11:00   83.9    14   13.2   235     23.2   854.3    0.00     639    79.9
 239   11:10   84.2    14   13.1   242     20.6   854.3    0.00     647    80.2
 239   11:20   84.9    14   13.9   241     22.4   854.3    0.00     650    80.4
 239   11:30   84.7    14   13.9   236     21.9   854.3    0.00     654    80.7
 239   11:40   84.9    14   13.1   243     24.2   854.2    0.00     663    80.8
 239   11:50   84.7    15   14.8   234     23.1   854.2    0.00     670    80.9
 239   12:00   84.4    15   10.2   201     18.7   854.3    0.00     659    81.2
 239   12:10   84.7    14   12.5   223     23.0   854.2    0.00     668    81.3
 239   12:20   85.2    14   11.2   233     22.5   853.8    0.00     691    81.4
 239   12:30   85.8    14   13.2   231     23.7   853.3    0.00     690    81.5
 239   12:40   86.0    14   12.9   233     21.5   852.0    0.00     673    81.7
 239   12:50   86.2    14   11.7   241     21.1   851.7    0.00     573    81.8
 239   13:00   86.4    13   13.6   236     22.0   851.6    0.00     647    81.9
 239   13:10   87.9    13   11.8   248     22.5   851.9    0.00     705    82.1
 239   13:20   87.0    13   13.0   236     23.5   852.2    0.00     673    82.3
 239   13:30   86.8    13   12.1   238     25.4   852.6    0.00     653    82.4
 239   13:40   86.8    13   12.6   233     23.8   852.8    0.00     601    82.6
 239   13:50   85.9    13   10.0   241     15.9   852.9    0.00     428    82.4
 239   14:00   86.6    13   13.9   239     23.5   852.7    0.00     566    82.4
 239   14:10   86.3    13   11.0   231     20.2   852.6    0.00     504    82.5
 239   14:20   85.8    14   14.3   233     26.3   852.5    0.00     523    82.5
 239   14:30   86.3    14   13.8   237     22.0   852.4    0.00     545    82.5
 239   14:40   86.6    13   16.4   248     30.4   852.2    0.00     486    82.5
 239   14:50   87.6    13   12.4   261     24.9   852.3    0.00     465    82.5
 239   15:00   87.5    13   13.6   261     20.5   852.2    0.00     471    82.6
 239   15:10   86.8    13   13.4   257     24.5   852.2    0.00     464    82.7
 239   15:20   86.6    13   12.2   235     20.8   852.2    0.00     458    82.7
 239   15:30   86.2    13   10.3   240     20.7   852.2    0.00     456    82.6
 239   15:40   86.4    13   11.6   242     19.3   852.2    0.00     418    82.6
 239   15:50   86.4    13   12.6   252     19.4   852.1    0.00     380    82.6
 239   16:00   86.3    13    8.6   242     15.3   852.0    0.00     332    82.6
 239   16:10   86.3    13   12.2   258     17.9   852.0    0.00     268    82.6
 239   16:20   85.5    13   12.1   250     19.4   851.9    0.00     200    82.4
 239   16:30   85.3    13    9.1   242     15.3   851.8    0.00     222    82.3
 239   16:40   84.8    14   11.7   227     18.3   851.7    0.00     191    82.1
 239   16:50   85.1    13   13.0   248     19.1   851.7    0.00     219    82.2
 239   17:00   84.8    14   12.2   236     19.7   851.6    0.00     189    82.2
 239   17:10   84.1    14   11.0   237     17.4   851.6    0.00     123    82.2
 239   17:20   84.0    14    9.2   233     15.0   851.4    0.00     109    82.0
 239   17:30   83.5    14   10.7   234     16.8   851.3    0.00      97    81.9
 239   17:40   83.0    14   10.9   236     16.4   850.9    0.00      80    81.7
 239   17:50   82.5    15    9.4   234     16.1   850.9    0.00      66    81.5
 239   18:00   82.3    14   10.7   225     17.0   850.8    0.00      46    81.4
 239   18:10   81.6    15   11.0   225     18.0   850.8    0.00      30    81.2
 239   18:20   80.8    16   10.1   228     15.9   850.7    0.00      18    80.9
 239   18:30   80.3    16   10.3   224     15.6   850.8    0.00       8    80.7
 239   18:40   79.7    16   10.2   222     18.0   851.3    0.00       3    80.5
 239   18:50   79.6    16   11.3   222     17.0   851.3    0.00       0    80.2
 239   19:00   79.1    17    9.6   219     14.7   850.9    0.00       0    80.0
 239   19:10   78.9    18   11.2   223     19.1   850.8    0.00       0    79.8
 239   19:20   78.4    18   10.2   224     14.9   851.4    0.00       0    79.6
 239   19:30   77.5    19    8.4   230     12.9   851.5    0.00       0    79.5
 239   19:40   76.6    20    8.0   233     12.6   851.4    0.00       0    79.2
 239   19:50   76.5    20    9.0   226     12.9   851.6    0.00       0    79.0
 239   20:00   76.6    20    8.8   227     14.8   851.6    0.00       0    78.8
 239   20:10   76.7    21   10.0   225     15.5   851.7    0.00       0    78.7
 239   20:20   76.9    21   10.7   222     16.8   851.6    0.00       0    78.5
 239   20:30   77.0    22    9.6   220     14.3   851.7    0.00       0    78.5
 239   20:40   76.8    22    9.8   216     14.2   851.7    0.00       0    78.3
 239   20:50   75.9    22    7.8   186     10.7   851.9    0.00       0    78.1
 239   21:00   75.6    22    8.5   168     11.4   851.9    0.00       0    77.9
 239   21:10   75.3    22    8.1   153     10.7   852.0    0.00       0    77.6
 239   21:20   74.0    23    6.8   141     10.2   852.1    0.00       0    77.3
 239   21:30   72.2    24    4.1   139      7.9   852.2    0.00       0    77.1
 239   21:40   74.2    23    2.6   117      4.1   852.2    0.00       0    76.9
 239   21:50   72.8    24    4.2    91      9.0   852.0    0.00       0    76.6
 239   22:00   72.4    24   11.3    43     18.1   852.4    0.00       0    76.4
 239   22:10   71.5    25   10.4    60     15.9   852.6    0.00       0    76.2
 239   22:20   73.7    24   12.8    84     17.7   852.7    0.00       0    76.2
 239   22:30   73.7    24   13.5    78     17.9   852.6    0.00       0    76.2
 239   22:40   73.4    25   10.7    84     14.5   852.6    0.00       0    76.1
 239   22:50   73.0    25    9.7   103     14.0   852.6    0.00       0    76.0
 239   23:00   71.3    27    5.7    44      8.0   852.6    0.00       0    75.8
 239   23:10   71.1    28    2.3   208      5.0   852.6    0.00       0    75.7
 239   23:20   70.4    28    1.4   314      2.2   852.4    0.00       0    75.5
 239   23:30   68.8    29    4.0   183      9.4   851.7    0.00       0    75.4
 239   23:40   66.4    30    8.1   197     10.8   851.8    0.00       0    74.9
 239   23:50   67.9    30    7.7   228     10.9   851.9    0.00       0    74.7
 240    0:00   68.8    30    7.7   222     13.5   851.5    0.00       0    74.6

Return to St. George, Utah graphs page.


Western Regional Climate Center,wrcc@dri.edu